Time;durP1;ratioP1;P1;durP2;ratioP2;P2;SDS_P1;SDS_P2;PMS_P1;PMS_P2;Temp;Humidity;BMP_temperature;BMP_pressure;BME280_temperature;BME280_humidity;BME280_pressure;Samples;Min_cycle;Max_cycle;Signal;HPM_P1;HPM_P2
2023/07/12 00:00:29;;;;;;;3.97;2.28;;;18.70;99.90;;;;;;5038490;28;20120;-68
2023/07/12 00:02:55;;;;;;;5.55;2.33;;;18.70;99.90;;;;;;5039252;28;20377;-70
2023/07/12 00:05:27;;;;;;;4.63;2.10;;;18.60;99.90;;;;;;5041669;28;20120;-67
2023/07/12 00:07:53;;;;;;;7.45;2.10;;;18.60;99.90;;;;;;5049779;28;20056;-70
2023/07/12 00:10:24;;;;;;;5.47;2.03;;;18.50;99.90;;;;;;5038805;28;20053;-67
2023/07/12 00:12:50;;;;;;;3.67;2.00;;;18.60;99.90;;;;;;5038384;28;20047;-68
2023/07/12 00:15:28;;;;;;;4.90;2.42;;;18.60;99.90;;;;;;5039456;28;20061;-68
2023/07/12 00:17:55;;;;;;;5.45;2.10;;;18.60;99.90;;;;;;5047602;28;20047;-68
2023/07/12 00:20:28;;;;;;;6.18;2.70;;;18.60;99.90;;;;;;5041250;28;20053;-67
2023/07/12 00:22:54;;;;;;;6.03;2.17;;;18.60;99.90;;;;;;5041440;28;20059;-67
2023/07/12 00:25:22;;;;;;;8.13;2.15;;;18.50;99.90;;;;;;5039251;28;20134;-67
2023/07/12 00:27:48;;;;;;;5.47;2.65;;;18.50;99.90;;;;;;5042012;28;20515;-68
2023/07/12 00:30:32;;;;;;;6.20;2.00;;;18.50;99.90;;;;;;5049081;28;20124;-70
2023/07/12 00:33:03;;;;;;;2.95;1.85;;;18.50;99.90;;;;;;5042958;28;20064;-67
2023/07/12 00:35:31;;;;;;;4.47;2.38;;;18.50;99.90;;;;;;5040574;28;20041;-68
2023/07/12 00:37:59;;;;;;;4.70;2.20;;;18.40;99.90;;;;;;5038093;28;20045;-67
2023/07/12 00:40:45;;;;;;;8.68;2.85;;;18.40;99.90;;;;;;5045848;28;20037;-68
2023/07/12 00:43:31;;;;;;;5.32;2.42;;;18.40;99.90;;;;;;5043310;28;20069;-67
2023/07/12 00:45:59;;;;;;;7.43;2.47;;;18.40;99.90;;;;;;5037602;28;20080;-69
2023/07/12 00:48:25;;;;;;;4.28;2.42;;;18.40;99.90;;;;;;5045606;28;20047;-67
2023/07/12 00:50:51;;;;;;;5.75;2.70;;;18.40;99.90;;;;;;5039489;28;20045;-67
2023/07/12 00:53:23;;;;;;;9.07;2.60;;;18.30;99.90;;;;;;5037980;28;20129;-68
2023/07/12 00:56:05;;;;;;;5.05;2.35;;;18.30;99.90;;;;;;5038314;28;20083;-68
2023/07/12 00:58:34;;;;;;;4.85;2.70;;;18.30;99.90;;;;;;5046626;28;20052;-68
2023/07/12 01:01:02;;;;;;;8.05;2.70;;;18.30;99.90;;;;;;5040901;28;20051;-67
2023/07/12 01:03:33;;;;;;;6.70;2.95;;;18.20;99.90;;;;;;5040578;28;20059;-67
2023/07/12 01:06:00;;;;;;;7.43;2.72;;;18.20;99.90;;;;;;5040288;28;20048;-68
2023/07/12 01:08:28;;;;;;;4.10;2.80;;;18.20;99.90;;;;;;5042907;28;20770;-68
2023/07/12 01:10:54;;;;;;;6.25;2.80;;;18.20;99.90;;;;;;5044431;28;20045;-68
2023/07/12 01:13:22;;;;;;;6.03;3.05;;;18.10;99.90;;;;;;5044502;28;20041;-67
2023/07/12 01:15:48;;;;;;;8.95;2.80;;;18.10;99.90;;;;;;5043523;28;20135;-68
2023/07/12 01:18:14;;;;;;;6.47;3.15;;;18.10;99.90;;;;;;5043434;28;20045;-67
2023/07/12 01:20:42;;;;;;;8.95;3.33;;;18.10;99.90;;;;;;5051940;28;20051;-67
2023/07/12 01:23:08;;;;;;;8.18;3.33;;;18.10;99.90;;;;;;5044558;28;20064;-67
2023/07/12 01:25:42;;;;;;;5.68;3.17;;;18.10;99.90;;;;;;5023956;28;20050;-67
2023/07/12 01:28:08;;;;;;;5.32;3.17;;;18.00;99.90;;;;;;5041500;28;20498;-68
2023/07/12 01:30:34;;;;;;;6.00;3.00;;;18.00;99.90;;;;;;5051713;28;20127;-67
2023/07/12 01:33:00;;;;;;;6.63;3.08;;;17.90;99.90;;;;;;5044217;28;20040;-67
2023/07/12 01:35:26;;;;;;;7.47;3.55;;;18.00;99.90;;;;;;5044031;28;20133;-69
2023/07/12 01:37:52;;;;;;;7.03;3.63;;;17.90;99.90;;;;;;5039567;28;20081;-68
2023/07/12 01:40:17;;;;;;;5.38;3.45;;;17.90;99.90;;;;;;5046424;28;20045;-68
2023/07/12 01:42:44;;;;;;;6.82;3.40;;;17.80;99.90;;;;;;5050574;28;20503;-67
2023/07/12 01:45:09;;;;;;;10.07;3.55;;;17.80;99.90;;;;;;5041171;28;20033;-67
2023/07/12 01:47:35;;;;;;;7.38;3.13;;;17.80;99.90;;;;;;5041203;28;20098;-69
2023/07/12 01:50:01;;;;;;;8.40;3.67;;;17.70;99.90;;;;;;5043841;28;20041;-70
2023/07/12 01:52:26;;;;;;;9.88;3.67;;;17.70;99.90;;;;;;5052124;28;20037;-68
2023/07/12 01:54:52;;;;;;;6.85;3.88;;;17.70;99.90;;;;;;5042375;28;20210;-66
2023/07/12 01:57:17;;;;;;;12.35;4.07;;;17.60;99.90;;;;;;5048228;28;20183;-68
2023/07/12 01:59:43;;;;;;;9.98;4.10;;;17.60;99.90;;;;;;5044273;28;20120;-70
2023/07/12 02:02:09;;;;;;;8.57;3.97;;;17.60;99.90;;;;;;5046265;28;20115;-68
2023/07/12 02:04:35;;;;;;;8.60;3.72;;;17.60;99.90;;;;;;5051569;28;20037;-70
2023/07/12 02:07:03;;;;;;;9.63;3.70;;;17.60;99.90;;;;;;5042784;28;20041;-68
2023/07/12 02:09:34;;;;;;;11.88;3.85;;;17.50;99.90;;;;;;5040585;28;20042;-69
2023/07/12 02:11:59;;;;;;;11.55;4.32;;;17.50;99.90;;;;;;5046820;28;20059;-67
2023/07/12 02:14:25;;;;;;;7.05;4.10;;;17.50;99.90;;;;;;5051188;28;20435;-70
2023/07/12 02:16:51;;;;;;;9.68;4.45;;;17.50;99.90;;;;;;5051632;28;20048;-69
2023/07/12 02:19:16;;;;;;;9.43;4.10;;;17.50;99.90;;;;;;5045492;28;20052;-68
2023/07/12 02:21:42;;;;;;;11.05;4.28;;;17.40;99.90;;;;;;5043335;28;20045;-67
2023/07/12 02:24:08;;;;;;;10.57;3.85;;;17.40;99.90;;;;;;5043477;28;20147;-67
2023/07/12 02:26:35;;;;;;;10.38;4.00;;;17.40;99.90;;;;;;5043461;28;20051;-69
2023/07/12 02:29:00;;;;;;;13.50;4.60;;;17.40;99.90;;;;;;5051446;28;20056;-68
2023/07/12 02:31:29;;;;;;;9.50;4.22;;;17.40;99.90;;;;;;5043324;28;20053;-68
2023/07/12 02:33:55;;;;;;;9.60;3.92;;;17.40;99.90;;;;;;5043333;28;20045;-68
2023/07/12 02:36:20;;;;;;;12.45;4.95;;;17.30;99.90;;;;;;5049916;28;20094;-69
2023/07/12 02:38:46;;;;;;;11.55;4.43;;;17.30;99.90;;;;;;5050726;28;20091;-68
2023/07/12 02:41:12;;;;;;;11.20;4.63;;;17.30;99.90;;;;;;5044121;28;20061;-68
2023/07/12 02:43:38;;;;;;;14.30;4.65;;;17.30;99.90;;;;;;5049727;28;20124;-67
2023/07/12 02:46:04;;;;;;;14.57;4.38;;;17.20;99.90;;;;;;5051740;28;20033;-66
2023/07/12 02:48:29;;;;;;;6.90;3.50;;;17.30;99.90;;;;;;5051516;28;20084;-67
2023/07/12 02:50:55;;;;;;;11.23;4.07;;;17.30;99.90;;;;;;5042731;28;20037;-69
2023/07/12 02:53:22;;;;;;;12.82;4.50;;;17.20;99.90;;;;;;5050817;28;20126;-69
2023/07/12 02:55:49;;;;;;;11.70;4.68;;;17.20;99.90;;;;;;5042697;28;20144;-68
2023/07/12 02:58:15;;;;;;;15.73;4.60;;;17.20;99.90;;;;;;5042750;28;20098;-70
2023/07/12 03:00:41;;;;;;;17.48;5.07;;;17.20;99.90;;;;;;5051233;28;20040;-68
2023/07/12 03:03:09;;;;;;;12.63;4.65;;;17.20;99.90;;;;;;5042920;28;20110;-67
2023/07/12 03:05:38;;;;;;;15.55;5.10;;;17.20;99.90;;;;;;5045666;28;20141;-67
2023/07/12 03:08:04;;;;;;;12.82;4.57;;;17.10;99.90;;;;;;5048427;28;20102;-67
2023/07/12 03:10:30;;;;;;;12.48;4.63;;;17.10;99.90;;;;;;5045117;28;20045;-67
2023/07/12 03:12:56;;;;;;;12.50;4.75;;;17.10;99.90;;;;;;5046909;28;20491;-68
2023/07/12 03:15:22;;;;;;;15.32;5.85;;;17.10;99.90;;;;;;5042334;28;20111;-66
2023/07/12 03:17:47;;;;;;;14.95;5.13;;;17.10;99.90;;;;;;5044637;28;20045;-68
2023/07/12 03:20:13;;;;;;;13.43;5.47;;;17.10;99.90;;;;;;5048179;28;20056;-68
2023/07/12 03:22:38;;;;;;;13.13;5.30;;;17.10;99.90;;;;;;5044274;28;20098;-67
2023/07/12 03:25:04;;;;;;;12.40;4.78;;;17.10;99.90;;;;;;5044006;28;20048;-68
2023/07/12 03:27:30;;;;;;;15.50;5.10;;;17.10;99.90;;;;;;5039699;28;20045;-66
2023/07/12 03:29:56;;;;;;;13.43;5.22;;;17.00;99.90;;;;;;5040569;28;20098;-68
2023/07/12 03:32:25;;;;;;;18.05;6.32;;;17.00;99.90;;;;;;5049605;28;20044;-68
2023/07/12 03:34:50;;;;;;;21.73;5.30;;;17.00;99.90;;;;;;5042336;28;20059;-66
2023/07/12 03:37:16;;;;;;;18.58;5.43;;;17.00;99.90;;;;;;5043070;28;20487;-69
2023/07/12 03:39:43;;;;;;;18.83;5.00;;;17.00;99.90;;;;;;5040049;28;20057;-67
2023/07/12 03:42:09;;;;;;;13.50;5.53;;;17.00;99.90;;;;;;5047128;28;20040;-68
2023/07/12 03:44:35;;;;;;;17.63;6.93;;;16.90;99.90;;;;;;5048837;28;20049;-67
2023/07/12 03:47:01;;;;;;;16.15;5.13;;;16.90;99.90;;;;;;5042257;28;20036;-67
2023/07/12 03:49:28;;;;;;;17.02;4.90;;;16.90;99.90;;;;;;5045647;28;20045;-66
2023/07/12 03:51:54;;;;;;;17.50;4.80;;;16.90;99.90;;;;;;5049550;28;20618;-66
2023/07/12 03:54:21;;;;;;;15.20;4.78;;;16.90;99.90;;;;;;5043613;28;20049;-68
2023/07/12 03:56:47;;;;;;;16.10;4.95;;;16.90;99.90;;;;;;5039527;28;20127;-68
2023/07/12 03:59:13;;;;;;;16.50;5.20;;;16.90;99.90;;;;;;5050000;28;20071;-68
2023/07/12 04:01:38;;;;;;;18.60;4.60;;;16.90;99.90;;;;;;5039920;28;20045;-70
2023/07/12 04:04:05;;;;;;;14.93;4.70;;;16.90;99.90;;;;;;5048358;28;20056;-71
2023/07/12 04:06:31;;;;;;;16.65;4.72;;;16.90;99.90;;;;;;5049044;28;20072;-68
2023/07/12 04:08:57;;;;;;;19.05;5.53;;;16.90;99.90;;;;;;5048621;28;20101;-68
2023/07/12 04:11:31;;;;;;;15.32;4.70;;;16.90;99.90;;;;;;5041204;28;20494;-67
2023/07/12 04:13:59;;;;;;;13.75;5.25;;;16.90;99.90;;;;;;5047924;28;20627;-68
2023/07/12 04:16:25;;;;;;;16.50;4.95;;;16.90;99.90;;;;;;5041326;28;20180;-67
2023/07/12 04:18:52;;;;;;;23.92;5.10;;;16.90;99.90;;;;;;5049895;28;20564;-67
2023/07/12 04:21:18;;;;;;;23.67;5.68;;;16.80;99.90;;;;;;5040382;28;20041;-67
2023/07/12 04:23:47;;;;;;;18.77;4.85;;;16.90;99.90;;;;;;5040593;28;20102;-68
2023/07/12 04:26:13;;;;;;;19.50;4.72;;;16.90;99.90;;;;;;5049400;28;20037;-68
2023/07/12 04:28:39;;;;;;;17.38;4.65;;;16.80;99.90;;;;;;5038108;28;20045;-73
2023/07/12 04:31:08;;;;;;;14.13;4.93;;;16.90;99.90;;;;;;5036604;28;20053;-68
2023/07/12 04:33:34;;;;;;;20.70;5.25;;;16.90;99.90;;;;;;5039965;28;20037;-67
2023/07/12 04:36:10;;;;;;;21.67;5.50;;;16.80;99.90;;;;;;5049219;28;20037;-66
2023/07/12 04:38:37;;;;;;;15.93;5.93;;;16.90;99.90;;;;;;5039703;28;20457;-71
2023/07/12 04:41:04;;;;;;;23.70;6.22;;;16.80;99.90;;;;;;5041144;28;20090;-68
2023/07/12 04:43:30;;;;;;;18.30;5.53;;;16.80;99.90;;;;;;5047040;28;20041;-67
2023/07/12 04:45:56;;;;;;;14.48;5.43;;;16.80;99.90;;;;;;5048638;28;20048;-67
2023/07/12 04:48:23;;;;;;;13.40;5.13;;;16.80;99.90;;;;;;5049429;28;20055;-67
2023/07/12 04:50:53;;;;;;;21.92;6.20;;;16.90;99.90;;;;;;5038209;28;20058;-69
2023/07/12 04:53:21;;;;;;;15.27;6.40;;;16.90;99.90;;;;;;5037660;28;20050;-70
2023/07/12 04:55:47;;;;;;;24.73;6.88;;;16.90;99.90;;;;;;5037464;28;20045;-68
2023/07/12 04:58:13;;;;;;;17.98;6.10;;;16.90;99.90;;;;;;5048197;28;20496;-69
2023/07/12 05:00:39;;;;;;;16.27;5.78;;;17.00;99.90;;;;;;5041330;28;20037;-69
2023/07/12 05:03:05;;;;;;;13.77;6.53;;;17.00;99.90;;;;;;5039313;28;20063;-72
2023/07/12 05:05:30;;;;;;;16.77;5.97;;;17.10;99.90;;;;;;5037700;28;20053;-68
2023/07/12 05:07:56;;;;;;;20.38;5.88;;;17.10;99.90;;;;;;5045759;28;20049;-71
2023/07/12 05:10:22;;;;;;;19.48;5.70;;;17.10;99.90;;;;;;5039283;28;20056;-69
2023/07/12 05:12:48;;;;;;;19.30;5.57;;;17.20;99.90;;;;;;5043704;28;20045;-72
2023/07/12 05:15:14;;;;;;;17.48;6.45;;;17.20;99.90;;;;;;5048778;28;20057;-68
2023/07/12 05:17:40;;;;;;;16.83;5.68;;;17.20;99.90;;;;;;5039161;28;20583;-69
2023/07/12 05:20:08;;;;;;;27.17;5.72;;;17.20;99.90;;;;;;5049438;28;20037;-67
2023/07/12 05:22:34;;;;;;;21.40;5.65;;;17.30;99.90;;;;;;5040799;28;20040;-67
2023/07/12 05:25:00;;;;;;;17.77;5.57;;;17.30;99.90;;;;;;5048912;28;20053;-68
2023/07/12 05:27:26;;;;;;;19.35;5.22;;;17.40;99.90;;;;;;5038794;28;20095;-67
2023/07/12 05:29:53;;;;;;;19.42;5.28;;;17.40;99.90;;;;;;5048012;28;20091;-68
2023/07/12 05:32:19;;;;;;;17.38;4.65;;;17.40;99.90;;;;;;5039293;28;20045;-68
2023/07/12 05:34:45;;;;;;;18.48;5.63;;;17.40;99.90;;;;;;5037548;28;20045;-69
2023/07/12 05:37:11;;;;;;;21.55;5.88;;;17.50;99.90;;;;;;5037449;28;20049;-68
2023/07/12 05:39:37;;;;;;;20.48;6.00;;;17.50;99.90;;;;;;5046876;28;20041;-68
2023/07/12 05:42:03;;;;;;;19.70;5.30;;;17.60;99.90;;;;;;5040298;28;20041;-68
2023/07/12 05:44:28;;;;;;;15.18;5.18;;;17.60;99.90;;;;;;5040805;28;20044;-68
2023/07/12 05:46:54;;;;;;;21.35;5.32;;;17.60;99.90;;;;;;5040561;28;20050;-68
2023/07/12 05:49:20;;;;;;;22.75;6.00;;;17.60;99.90;;;;;;5048299;28;20047;-69
2023/07/12 05:51:46;;;;;;;19.27;5.65;;;17.60;99.90;;;;;;5046431;28;20102;-68
2023/07/12 05:54:12;;;;;;;14.77;5.32;;;17.60;99.90;;;;;;5046950;28;20447;-68
2023/07/12 05:56:38;;;;;;;14.93;5.47;;;17.60;99.90;;;;;;5048894;28;20114;-68
2023/07/12 05:59:04;;;;;;;19.52;6.07;;;17.60;99.90;;;;;;5046599;28;20496;-67
2023/07/12 06:01:30;;;;;;;19.58;5.80;;;17.60;99.90;;;;;;5046574;28;20045;-67
2023/07/12 06:03:55;;;;;;;15.93;5.22;;;17.60;99.90;;;;;;5041664;28;20452;-67
2023/07/12 06:06:21;;;;;;;19.55;5.10;;;17.60;99.90;;;;;;5044120;28;20048;-68
2023/07/12 06:08:47;;;;;;;12.45;5.35;;;17.60;99.90;;;;;;5043714;28;20124;-67
2023/07/12 06:11:13;;;;;;;16.15;5.85;;;17.70;99.90;;;;;;5043337;28;20098;-67
2023/07/12 06:13:39;;;;;;;17.90;6.78;;;17.80;99.90;;;;;;5048693;28;20136;-67
2023/07/12 06:16:05;;;;;;;23.25;6.15;;;17.90;99.90;;;;;;5043987;28;20091;-68
2023/07/12 06:18:31;;;;;;;18.95;5.95;;;18.00;99.90;;;;;;5049649;28;20056;-68
2023/07/12 06:20:59;;;;;;;15.57;5.80;;;18.10;99.90;;;;;;5043426;28;20499;-69
2023/07/12 06:23:26;;;;;;;16.27;5.80;;;18.30;99.90;;;;;;5049762;28;20500;-70
2023/07/12 06:25:55;;;;;;;19.83;6.38;;;18.30;99.90;;;;;;5040466;28;20485;-73
2023/07/12 06:28:21;;;;;;;13.10;5.38;;;18.30;99.90;;;;;;5040953;28;20476;-70
2023/07/12 06:30:46;;;;;;;17.00;5.88;;;18.40;99.90;;;;;;5051853;28;20052;-70
2023/07/12 06:33:12;;;;;;;23.08;6.30;;;18.40;99.90;;;;;;5051629;28;20142;-69
2023/07/12 06:35:39;;;;;;;16.05;5.65;;;18.40;99.90;;;;;;5041131;28;20523;-71
2023/07/12 06:38:04;;;;;;;17.13;6.15;;;18.50;99.90;;;;;;5038738;28;20103;-68
2023/07/12 06:40:30;;;;;;;21.65;5.85;;;18.60;99.90;;;;;;5043270;28;20053;-72
2023/07/12 06:42:57;;;;;;;18.02;5.40;;;18.60;99.90;;;;;;5051499;28;20041;-69
2023/07/12 06:45:22;;;;;;;18.13;6.07;;;18.70;99.90;;;;;;5042643;28;20049;-71
2023/07/12 06:47:48;;;;;;;20.48;6.07;;;18.70;99.90;;;;;;5049055;28;20049;-69
2023/07/12 06:50:14;;;;;;;18.17;6.22;;;18.70;99.90;;;;;;5050034;28;20187;-69
2023/07/12 06:52:39;;;;;;;15.80;6.07;;;18.80;99.90;;;;;;5043270;28;20033;-72
2023/07/12 06:55:05;;;;;;;19.10;5.13;;;18.80;99.90;;;;;;5039740;28;20048;-72
2023/07/12 06:57:34;;;;;;;18.25;6.13;;;18.90;99.90;;;;;;5044679;28;20041;-71
2023/07/12 07:00:04;;;;;;;18.08;5.43;;;18.90;99.90;;;;;;5042777;28;20408;-69
2023/07/12 07:02:30;;;;;;;22.13;5.57;;;18.90;99.90;;;;;;5042734;28;20037;-68
2023/07/12 07:04:55;;;;;;;14.13;4.30;;;18.90;99.90;;;;;;5040423;28;20049;-69
2023/07/12 07:07:21;;;;;;;17.45;5.03;;;18.90;99.90;;;;;;5039228;28;20046;-70
2023/07/12 07:09:47;;;;;;;19.77;4.45;;;18.90;99.90;;;;;;5041441;28;20064;-69
2023/07/12 07:12:12;;;;;;;17.33;3.85;;;18.90;99.90;;;;;;5041597;28;20041;-70
2023/07/12 07:14:38;;;;;;;14.05;3.40;;;18.90;99.90;;;;;;5042371;28;20053;-69
2023/07/12 07:17:04;;;;;;;23.25;3.92;;;19.10;99.90;;;;;;5042415;28;20114;-69
2023/07/12 07:19:30;;;;;;;18.77;4.30;;;19.20;99.90;;;;;;5042055;28;20075;-70
2023/07/12 07:21:55;;;;;;;15.13;3.97;;;19.30;99.90;;;;;;5042355;28;20037;-70
2023/07/12 07:24:21;;;;;;;15.68;4.25;;;19.40;99.90;;;;;;5051083;28;20056;-70
2023/07/12 07:26:46;;;;;;;17.33;4.35;;;19.60;99.90;;;;;;5040989;28;20053;-70
2023/07/12 07:29:12;;;;;;;16.92;4.10;;;19.70;99.90;;;;;;5048248;28;20037;-68
2023/07/12 07:31:38;;;;;;;19.10;4.15;;;19.70;99.90;;;;;;5036958;28;20061;-75
2023/07/12 07:34:04;;;;;;;16.80;3.83;;;19.80;99.90;;;;;;5037968;28;20053;-69
2023/07/12 07:36:29;;;;;;;17.27;3.85;;;19.90;99.90;;;;;;5039713;28;20110;-69
2023/07/12 07:38:55;;;;;;;15.40;3.75;;;19.80;99.90;;;;;;5050204;28;20480;-73
2023/07/12 07:41:21;;;;;;;14.95;3.75;;;19.80;99.90;;;;;;5042831;28;20072;-69
2023/07/12 07:43:46;;;;;;;10.15;2.58;;;19.70;99.90;;;;;;5039793;28;20044;-70
2023/07/12 07:46:13;;;;;;;12.82;3.08;;;19.60;99.90;;;;;;5038479;28;20493;-71
2023/07/12 07:48:39;;;;;;;12.18;3.00;;;19.60;99.90;;;;;;5041150;28;20055;-69
2023/07/12 07:51:08;;;;;;;16.00;2.88;;;19.70;99.90;;;;;;5051085;28;20041;-71
2023/07/12 07:53:34;;;;;;;11.10;2.47;;;19.90;99.90;;;;;;5042870;28;20033;-70
2023/07/12 07:55:59;;;;;;;13.25;3.40;;;20.00;99.90;;;;;;5041455;28;20059;-69
2023/07/12 07:58:25;;;;;;;10.60;2.92;;;20.30;99.90;;;;;;5042508;28;20052;-69
2023/07/12 08:00:52;;;;;;;9.50;2.78;;;20.40;99.90;;;;;;5041708;28;20052;-71
2023/07/12 08:03:18;;;;;;;13.68;3.08;;;20.50;99.90;;;;;;5039382;28;20076;-69
2023/07/12 08:05:45;;;;;;;10.60;2.92;;;20.60;99.90;;;;;;5046508;28;20076;-68
2023/07/12 08:08:11;;;;;;;11.27;3.03;;;20.70;99.90;;;;;;5050000;28;20049;-72
2023/07/12 08:10:37;;;;;;;12.07;3.42;;;20.60;99.90;;;;;;5047646;28;20518;-75
2023/07/12 08:13:03;;;;;;;13.55;3.30;;;20.40;99.90;;;;;;5041886;28;20045;-68
2023/07/12 08:15:29;;;;;;;13.30;2.80;;;20.30;99.90;;;;;;5045497;28;20455;-68
2023/07/12 08:17:55;;;;;;;10.25;2.75;;;20.20;99.90;;;;;;5037069;28;20133;-69
2023/07/12 08:20:23;;;;;;;17.10;3.60;;;20.00;99.90;;;;;;5048902;28;20136;-69
2023/07/12 08:22:49;;;;;;;15.80;3.47;;;19.90;99.90;;;;;;5050008;28;20044;-68
2023/07/12 08:25:15;;;;;;;14.75;3.42;;;19.80;99.90;;;;;;5043885;28;20084;-71
2023/07/12 08:27:41;;;;;;;12.02;3.55;;;19.80;99.90;;;;;;5039735;28;20041;-69
2023/07/12 08:30:08;;;;;;;17.95;3.70;;;19.70;99.90;;;;;;5039134;28;20041;-72
2023/07/12 08:32:34;;;;;;;20.20;4.43;;;19.70;99.90;;;;;;5040389;28;20492;-69
2023/07/12 08:35:01;;;;;;;16.40;3.40;;;19.60;99.90;;;;;;5045156;28;20107;-68
2023/07/12 08:37:27;;;;;;;9.75;2.35;;;19.60;99.90;;;;;;5039331;28;20128;-68
2023/07/12 08:39:53;;;;;;;8.77;2.00;;;19.50;99.90;;;;;;5042080;28;20053;-68
2023/07/12 08:42:37;;;;;;;8.95;2.53;;;19.50;99.90;;;;;;5042170;28;20052;-69
2023/07/12 08:45:18;;;;;;;9.68;2.45;;;19.50;99.90;;;;;;5054323;28;20053;-70
2023/07/12 08:47:45;;;;;;;9.10;2.30;;;19.40;99.90;;;;;;5048139;28;20522;-67
2023/07/12 08:50:15;;;;;;;13.70;3.30;;;19.40;99.90;;;;;;5039000;28;20049;-68
2023/07/12 08:52:44;;;;;;;10.88;2.92;;;19.50;99.90;;;;;;5049579;28;20091;-70
2023/07/12 08:55:20;;;;;;;12.02;2.40;;;19.70;99.90;;;;;;5040381;28;20052;-70
2023/07/12 08:58:31;;;;;;;11.18;3.05;;;19.90;99.90;;;;;;5043269;28;20052;-68
2023/07/12 09:01:12;;;;;;;11.63;2.92;;;20.20;99.90;;;;;;5041569;28;20480;-74
2023/07/12 09:03:38;;;;;;;9.82;3.15;;;20.50;99.90;;;;;;5042839;28;20520;-72
2023/07/12 09:06:11;;;;;;;9.98;2.92;;;20.60;99.90;;;;;;5038837;28;20116;-70
2023/07/12 09:08:39;;;;;;;9.32;2.80;;;20.70;99.90;;;;;;5039950;28;20045;-72
2023/07/12 09:11:17;;;;;;;9.55;2.65;;;20.70;99.90;;;;;;5049377;28;20033;-72
2023/07/12 09:13:46;;;;;;;13.02;3.40;;;20.60;99.90;;;;;;5049403;28;20057;-73
2023/07/12 09:16:29;;;;;;;11.02;3.25;;;20.50;99.90;;;;;;5038566;28;20105;-68
2023/07/12 09:18:57;;;;;;;13.02;3.17;;;20.30;99.90;;;;;;5038409;28;20049;-70
2023/07/12 09:21:28;;;;;;;10.25;2.10;;;20.10;99.90;;;;;;5040637;28;20175;-69
2023/07/12 09:23:59;;;;;;;15.65;2.05;;;19.90;99.90;;;;;;5041393;28;20156;-69
2023/07/12 09:26:31;;;;;;;11.05;2.60;;;19.70;99.90;;;;;;5037964;28;20544;-69
2023/07/12 09:28:58;;;;;;;8.13;2.45;;;19.70;99.90;;;;;;5044281;28;20484;-68
2023/07/12 09:31:29;;;;;;;10.82;2.60;;;19.60;99.90;;;;;;5052353;28;20124;-69
2023/07/12 09:34:00;;;;;;;11.02;2.38;;;19.80;99.90;;;;;;5043490;28;20132;-66
2023/07/12 09:36:26;;;;;;;13.98;3.10;;;20.10;99.90;;;;;;5047052;28;20045;-70
2023/07/12 09:38:58;;;;;;;13.88;3.08;;;20.40;99.90;;;;;;5044876;28;20045;-70
2023/07/12 09:41:24;;;;;;;7.97;2.30;;;20.70;99.90;;;;;;5045650;28;20045;-70
2023/07/12 09:43:55;;;;;;;6.78;2.20;;;20.90;99.90;;;;;;5042342;28;20048;-72
2023/07/12 09:46:36;;;;;;;9.50;2.53;;;21.10;99.90;;;;;;5042101;28;20080;-75
2023/07/12 09:49:10;;;;;;;7.38;1.80;;;21.30;99.90;;;;;;5045436;28;20044;-78
2023/07/12 09:51:46;;;;;;;8.43;2.25;;;21.50;99.90;;;;;;5044841;28;20070;-75
2023/07/12 09:54:34;;;;;;;8.50;2.20;;;21.50;99.90;;;;;;5046203;28;20483;-75
2023/07/12 09:57:12;;;;;;;8.07;2.15;;;21.40;99.90;;;;;;5040513;28;20512;-77
2023/07/12 09:59:38;;;;;;;10.07;2.20;;;21.50;99.90;;;;;;5048556;28;20045;-72
2023/07/12 10:02:28;;;;;;;5.90;1.83;;;21.60;99.90;;;;;;5048802;28;20036;-77
2023/07/12 10:04:59;;;;;;;8.38;2.05;;;21.80;99.90;;;;;;5041970;28;20095;-81
2023/07/12 10:07:53;;;;;;;13.90;1.77;;;22.00;99.90;;;;;;5045027;28;20041;-83
2023/07/12 10:10:43;;;;;;;6.50;1.85;;;21.80;99.90;;;;;;5044661;28;20063;-74
2023/07/12 10:13:37;;;;;;;8.00;1.63;;;21.60;99.90;;;;;;5042832;28;20057;-70
2023/07/12 10:16:05;;;;;;;6.43;1.83;;;21.60;99.90;;;;;;5051393;28;20052;-76
2023/07/12 10:18:35;;;;;;;6.57;1.80;;;21.60;99.90;;;;;;5044298;28;20041;-68
2023/07/12 10:21:02;;;;;;;5.68;1.60;;;21.40;99.90;;;;;;5044044;28;20053;-71
2023/07/12 10:23:35;;;;;;;6.38;1.60;;;21.10;99.90;;;;;;5039924;28;20049;-68
2023/07/12 10:26:04;;;;;;;6.47;1.52;;;21.50;99.90;;;;;;5051322;28;20049;-69
2023/07/12 10:28:58;;;;;;;7.32;1.65;;;21.40;99.90;;;;;;5049876;28;20128;-69
2023/07/12 10:31:41;;;;;;;8.20;1.70;;;21.30;99.90;;;;;;5042266;28;20048;-69
2023/07/12 10:34:29;;;;;;;5.45;1.65;;;21.20;99.90;;;;;;5050693;28;20061;-69
2023/07/12 10:37:01;;;;;;;16.33;2.35;;;21.20;99.90;;;;;;5047553;28;20563;-68
2023/07/12 10:39:27;;;;;;;7.13;1.48;;;21.10;99.90;;;;;;5043628;28;20045;-70
2023/07/12 10:42:17;;;;;;;10.07;1.80;;;21.10;99.90;;;;;;5040765;28;20124;-68
2023/07/12 10:44:49;;;;;;;10.35;1.48;;;21.40;99.90;;;;;;5050910;28;20040;-69
2023/07/12 10:47:17;;;;;;;6.15;1.60;;;21.70;99.90;;;;;;5051943;28;20045;-68
2023/07/12 10:49:58;;;;;;;11.35;1.98;;;22.10;99.90;;;;;;5051041;28;20095;-75
2023/07/12 10:52:32;;;;;;;6.07;1.25;;;22.30;99.90;;;;;;5046475;28;20429;-68
2023/07/12 10:55:04;;;;;;;;;;;22.40;99.90;;;;;;5044265;28;20139;-68
2023/07/12 10:57:49;;;;;;;5.20;1.02;;;22.20;99.90;;;;;;5045434;28;20394;-70
2023/07/12 11:00:30;;;;;;;6.78;1.15;;;22.00;99.90;;;;;;5046024;28;20057;-73
2023/07/12 11:03:09;;;;;;;18.05;1.63;;;22.00;99.90;;;;;;5041449;28;20045;-68
2023/07/12 11:05:45;;;;;;;5.50;1.10;;;22.20;99.90;;;;;;5039670;28;20049;-69
2023/07/12 11:08:29;;;;;;;3.08;1.08;;;22.40;99.90;;;;;;5041706;28;20080;-69
2023/07/12 11:10:58;;;;;;;7.90;1.52;;;22.40;99.90;;;;;;5050478;28;20041;-71
2023/07/12 11:13:30;;;;;;;4.90;1.13;;;22.40;99.90;;;;;;5050944;28;20051;-70
2023/07/12 11:16:05;;;;;;;4.47;1.25;;;22.50;99.90;;;;;;5041576;28;20053;-74
2023/07/12 11:18:36;;;;;;;2.95;1.02;;;22.50;99.90;;;;;;5043140;28;20094;-73
2023/07/12 11:21:07;;;;;;;4.43;0.93;;;22.50;99.90;;;;;;5042506;28;20115;-72
2023/07/12 11:23:36;;;;;;;3.95;1.10;;;22.50;99.90;;;;;;5048132;28;20064;-77
2023/07/12 11:26:26;;;;;;;5.07;1.10;;;22.30;99.90;;;;;;5048736;28;20127;-69
2023/07/12 11:28:51;;;;;;;9.30;1.20;;;22.20;99.90;;;;;;5044717;28;20127;-69
2023/07/12 11:31:23;;;;;;;3.50;1.00;;;22.40;99.90;;;;;;5042215;28;20171;-71
2023/07/12 11:34:14;;;;;;;5.57;1.65;;;22.20;99.90;;;;;;5045243;28;20053;-73
2023/07/12 11:36:40;;;;;;;5.25;1.02;;;22.20;99.90;;;;;;5045985;28;20150;-70
2023/07/12 11:39:18;;;;;;;3.35;0.82;;;22.30;99.90;;;;;;5038947;28;20454;-73
2023/07/12 11:42:08;;;;;;;6.38;1.45;;;22.60;99.90;;;;;;5049408;28;20116;-73
2023/07/12 11:44:34;;;;;;;3.30;0.73;;;22.70;99.90;;;;;;5046164;28;20076;-77
2023/07/12 11:47:02;;;;;;;2.65;0.52;;;22.50;99.90;;;;;;5043096;28;20044;-71
2023/07/12 11:49:30;;;;;;;4.47;0.93;;;22.70;99.90;;;;;;5046151;28;20108;-76
2023/07/12 11:52:04;;;;;;;4.53;0.80;;;22.90;99.90;;;;;;5049221;28;20045;-71
2023/07/12 11:54:37;;;;;;;9.07;1.30;;;23.00;99.90;;;;;;5041634;28;20041;-76
2023/07/12 11:57:05;;;;;;;7.53;2.22;;;22.80;99.90;;;;;;5038583;28;20499;-78
2023/07/12 11:59:36;;;;;;;6.13;1.40;;;22.60;99.90;;;;;;5038700;28;20053;-69
2023/07/12 12:02:05;;;;;;;2.88;1.15;;;22.90;99.90;;;;;;5039336;28;20062;-68
2023/07/12 12:04:31;;;;;;;5.60;1.10;;;23.00;99.90;;;;;;5042100;28;20044;-66
2023/07/12 12:07:12;;;;;;;10.27;1.58;;;22.90;99.90;;;;;;5047961;28;20037;-65
2023/07/12 12:09:38;;;;;;;3.90;0.85;;;22.60;99.90;;;;;;5041162;28;20497;-69
2023/07/12 12:12:07;;;;;;;3.75;0.80;;;22.60;99.90;;;;;;5040405;28;20036;-69
2023/07/12 12:14:40;;;;;;;4.75;0.80;;;22.70;99.90;;;;;;5037833;28;20416;-67
2023/07/12 12:17:12;;;;;;;6.45;1.35;;;22.90;99.90;;;;;;5038711;28;20057;-67
2023/07/12 12:19:38;;;;;;;2.90;0.50;;;22.70;99.90;;;;;;5041368;28;20040;-69
2023/07/12 12:22:33;;;;;;;4.82;0.65;;;22.90;99.90;;;;;;5049729;28;20511;-74
2023/07/12 12:25:00;;;;;;;8.95;1.17;;;23.10;99.90;;;;;;5001316;28;20069;-72
2023/07/12 12:27:37;;;;;;;5.28;0.80;;;22.80;99.90;;;;;;4982645;28;20065;-67
2023/07/12 12:30:31;;;;;;;3.95;0.70;;;22.50;99.90;;;;;;5007496;28;20096;-68
2023/07/12 12:33:06;;;;;;;3.25;0.65;;;22.50;99.90;;;;;;5007512;28;20054;-70
2023/07/12 12:35:44;;;;;;;3.05;0.80;;;22.80;99.90;;;;;;5007101;28;20053;-67
2023/07/12 12:38:20;;;;;;;4.38;0.60;;;22.90;99.90;;;;;;5007340;28;20052;-68
2023/07/12 12:40:53;;;;;;;5.80;0.70;;;22.70;99.90;;;;;;5007016;28;20053;-70
2023/07/12 12:43:19;;;;;;;4.38;0.88;;;22.50;99.90;;;;;;5007263;28;20414;-70
2023/07/12 12:45:44;;;;;;;3.13;0.65;;;22.40;99.90;;;;;;5007234;28;20432;-70
2023/07/12 12:48:13;;;;;;;3.90;0.50;;;22.20;99.90;;;;;;4991090;28;20050;-69
2023/07/12 12:50:39;;;;;;;3.70;0.60;;;22.30;99.90;;;;;;5007190;28;20125;-70